createdAt,value
2018-03-16T00:03:22.079Z,1007
2018-03-16T00:08:50.102Z,1007
2018-03-16T00:14:17.205Z,1007
2018-03-16T00:19:44.335Z,1007
2018-03-16T00:25:12.429Z,1007
2018-03-16T00:30:39.533Z,1007
2018-03-16T00:36:06.614Z,1007
2018-03-16T00:41:33.718Z,1007
2018-03-16T00:47:00.830Z,1007
2018-03-16T00:52:28.909Z,1007
2018-03-16T00:57:56.017Z,1007
2018-03-16T01:03:24.088Z,1007
2018-03-16T01:08:51.574Z,1007
2018-03-16T01:14:18.308Z,1007
2018-03-16T01:19:45.383Z,1008
2018-03-16T01:25:13.481Z,1007
2018-03-16T01:30:41.600Z,1007
2018-03-16T01:36:08.681Z,1007
2018-03-16T01:41:35.769Z,1007
2018-03-16T01:47:02.844Z,1007
2018-03-16T01:52:29.963Z,1007
2018-03-16T01:57:57.027Z,1007
2018-03-16T02:03:24.126Z,1007
2018-03-16T02:08:52.239Z,1007
2018-03-16T02:14:20.456Z,1007
2018-03-16T02:19:47.401Z,1007
2018-03-16T02:25:15.509Z,1007
2018-03-16T02:30:42.596Z,1007
2018-03-16T02:36:09.727Z,1007
2018-03-16T02:41:37.783Z,1007
2018-03-16T02:47:05.099Z,1008
2018-03-16T02:52:32.963Z,1008
2018-03-16T02:58:01.210Z,1008
2018-03-16T03:03:29.161Z,1007
2018-03-16T03:08:56.294Z,1008
2018-03-16T03:14:24.333Z,1008
2018-03-16T03:19:52.520Z,1008
2018-03-16T03:25:20.716Z,1008
2018-03-16T03:30:48.676Z,1008
2018-03-16T03:36:15.716Z,1008
2018-03-16T03:41:43.981Z,1008
2018-03-16T03:47:11.902Z,1008
2018-03-16T03:52:39.962Z,1008
2018-03-16T03:58:07.058Z,1008
2018-03-16T04:03:35.142Z,1008
2018-03-16T04:09:03.186Z,1008
2018-03-16T04:14:30.270Z,1008
2018-03-16T04:19:57.374Z,1008
2018-03-16T04:25:24.434Z,1008
2018-03-16T04:30:52.518Z,1008
2018-03-16T04:36:20.576Z,1008
2018-03-16T04:41:47.680Z,1008
2018-03-16T04:47:15.085Z,1008
2018-03-16T04:52:42.771Z,1008
2018-03-16T04:58:10.892Z,1008
2018-03-16T05:03:38.902Z,1008
2018-03-16T05:09:07.009Z,1008
2018-03-16T05:14:34.051Z,1008
2018-03-16T05:20:02.177Z,1008
2018-03-16T05:25:29.212Z,1008
2018-03-16T05:30:57.286Z,1008
2018-03-16T05:36:25.355Z,1008
2018-03-16T05:41:52.434Z,1009
2018-03-16T05:47:19.483Z,1009
2018-03-16T05:52:46.562Z,1009
2018-03-16T05:58:14.641Z,1009
2018-03-16T06:03:41.669Z,1009
2018-03-16T06:09:09.744Z,1009
2018-03-16T06:14:37.806Z,1009
2018-03-16T06:20:05.967Z,1009
2018-03-16T06:25:33.945Z,1009
2018-03-16T06:31:01.044Z,1009
2018-03-16T06:36:28.102Z,1009
2018-03-16T06:41:55.126Z,1009
2018-03-16T06:47:23.210Z,1009
2018-03-16T06:52:51.277Z,1009
2018-03-16T06:58:18.317Z,1009
2018-03-16T07:03:46.576Z,1010
2018-03-16T07:09:13.483Z,1010
2018-03-16T07:14:41.622Z,1010
2018-03-16T07:20:09.828Z,1010
2018-03-16T07:25:37.692Z,1010
2018-03-16T07:31:05.790Z,1010
2018-03-16T07:36:32.866Z,1010
2018-03-16T07:41:59.970Z,1010
2018-03-16T07:47:28.044Z,1010
2018-03-16T07:52:55.134Z,1010
2018-03-16T07:58:23.294Z,1010
2018-03-16T08:03:50.451Z,1010
2018-03-16T08:09:17.496Z,1010
2018-03-16T08:14:45.568Z,1010
2018-03-16T08:20:12.844Z,1010
2018-03-16T08:25:40.805Z,1010
2018-03-16T08:31:08.915Z,1010
2018-03-16T08:36:36.138Z,1010
2018-03-16T08:42:03.205Z,1010
2018-03-16T08:47:30.327Z,1010
2018-03-16T08:52:57.532Z,1010
2018-03-16T08:58:25.710Z,1010
2018-03-16T09:03:52.862Z,1011
2018-03-16T09:09:21.072Z,1011
2018-03-16T09:14:48.291Z,1011
2018-03-16T09:20:15.435Z,1011
2018-03-16T09:25:42.626Z,1011
2018-03-16T09:31:09.767Z,1011
2018-03-16T09:36:38.354Z,1011
2018-03-16T09:42:05.187Z,1011
2018-03-16T09:47:33.394Z,1011
2018-03-16T09:53:01.576Z,1011
2018-03-16T09:58:28.761Z,1011
2018-03-16T10:03:56.967Z,1011
2018-03-16T10:09:24.198Z,1011
2018-03-16T10:14:51.397Z,1011
2018-03-16T10:20:18.644Z,1011
2018-03-16T10:25:46.887Z,1011
2018-03-16T10:31:15.152Z,1011
2018-03-16T10:36:43.525Z,1011
2018-03-16T10:42:10.583Z,1011
2018-03-16T10:47:38.874Z,1011
2018-03-16T10:53:06.050Z,1011
2018-03-16T10:58:34.294Z,1011
2018-03-16T11:04:02.569Z,1012
2018-03-16T11:09:29.810Z,1011
2018-03-16T11:14:58.035Z,1011
2018-03-16T11:20:26.244Z,1012
2018-03-16T11:25:53.491Z,1012
2018-03-16T11:31:21.965Z,1012
2018-03-16T11:36:50.024Z,1012
2018-03-16T11:42:17.115Z,1012
2018-03-16T11:47:44.327Z,1012
2018-03-16T11:53:12.485Z,1012
2018-03-16T11:58:40.674Z,1012
2018-03-16T12:04:08.826Z,1012
2018-03-16T12:09:36.011Z,1012
2018-03-16T12:15:03.241Z,1012
2018-03-16T12:20:30.389Z,1012
2018-03-16T12:25:58.629Z,1012
2018-03-16T12:31:25.746Z,1012
2018-03-16T12:36:52.901Z,1012
2018-03-16T12:42:20.225Z,1012
2018-03-16T12:47:48.270Z,1012
2018-03-16T12:53:15.506Z,1012
2018-03-16T12:58:43.706Z,1012
2018-03-16T13:04:10.897Z,1012
2018-03-16T13:09:37.976Z,1012
2018-03-16T13:15:06.179Z,1012
2018-03-16T13:20:33.353Z,1012
2018-03-16T13:26:00.490Z,1012
2018-03-16T13:31:28.641Z,1012
2018-03-16T13:36:56.792Z,1012
2018-03-16T13:42:23.918Z,1012
2018-03-16T13:47:51.106Z,1012
2018-03-16T13:53:19.214Z,1012
2018-03-16T13:58:46.325Z,1012
2018-03-16T14:04:13.635Z,1012
2018-03-16T14:09:40.622Z,1013
2018-03-16T14:15:08.813Z,1013
2018-03-16T14:20:36.999Z,1013
2018-03-16T14:26:05.369Z,1012
2018-03-16T14:31:33.189Z,1013
2018-03-16T14:37:00.330Z,1013
2018-03-16T14:42:27.474Z,1013
2018-03-16T14:47:55.596Z,1013
2018-03-16T14:53:22.938Z,1013
2018-03-16T14:58:50.833Z,1013
2018-03-16T15:04:18.392Z,1013
2018-03-16T15:09:46.329Z,1013
2018-03-16T15:15:13.160Z,1013
2018-03-16T15:20:40.314Z,1013
2018-03-16T15:26:07.339Z,1013
2018-03-16T15:31:34.406Z,1013
2018-03-16T15:37:01.694Z,1013
2018-03-16T15:42:29.591Z,1013
2018-03-16T15:47:56.581Z,1013
2018-03-16T15:53:23.629Z,1013
2018-03-16T15:58:50.684Z,1013
2018-03-16T16:04:17.764Z,1013
2018-03-16T16:09:44.759Z,1014
2018-03-16T16:15:12.760Z,1014
2018-03-16T16:20:39.782Z,1014
2018-03-16T16:26:07.036Z,1014
2018-03-16T16:31:34.821Z,1014
2018-03-16T16:37:01.812Z,1014
2018-03-16T16:42:28.777Z,1014
2018-03-16T16:47:55.800Z,1014
2018-03-16T16:53:22.835Z,1014
2018-03-16T16:58:49.809Z,1014
2018-03-16T17:04:16.795Z,1014
2018-03-16T17:09:43.775Z,1014
2018-03-16T17:15:10.851Z,1014
2018-03-16T17:20:37.830Z,1014
2018-03-16T17:26:05.779Z,1014
2018-03-16T17:31:33.755Z,1014
2018-03-16T17:37:00.896Z,1015
2018-03-16T17:42:28.701Z,1015
2018-03-16T17:47:56.659Z,1015
2018-03-16T17:53:23.754Z,1015
2018-03-16T17:58:50.775Z,1015
2018-03-16T18:04:18.504Z,1015
2018-03-16T18:09:45.443Z,1015
2018-03-16T18:15:12.405Z,1015
2018-03-16T18:20:39.349Z,1015
2018-03-16T18:26:07.553Z,1015
2018-03-16T18:31:35.260Z,1015
2018-03-16T18:37:02.196Z,1015
2018-03-16T18:42:29.121Z,1016
2018-03-16T18:47:57.067Z,1015
2018-03-16T18:53:24.053Z,1016
2018-03-16T18:58:51.004Z,1016
2018-03-16T19:04:18.998Z,1016
2018-03-16T19:09:46.955Z,1016
2018-03-16T19:15:14.830Z,1016
2018-03-16T19:20:41.832Z,1015
2018-03-16T19:26:09.683Z,1016
2018-03-16T19:31:36.805Z,1016
2018-03-16T19:37:03.580Z,1016
2018-03-16T19:42:31.481Z,1016
2018-03-16T19:47:58.400Z,1016
2018-03-16T19:53:26.300Z,1016
2018-03-16T19:58:54.500Z,1016
2018-03-16T20:04:21.161Z,1016
2018-03-16T20:09:49.070Z,1016
2018-03-16T20:15:15.902Z,1016
2018-03-16T20:20:42.793Z,1016
2018-03-16T20:26:09.722Z,1016
2018-03-16T20:31:37.839Z,1016
2018-03-16T20:37:04.486Z,1016
2018-03-16T20:42:32.434Z,1016
2018-03-16T20:47:59.227Z,1016
2018-03-16T20:53:27.071Z,1016
2018-03-16T20:58:53.978Z,1016
2018-03-16T21:04:21.838Z,1016
2018-03-16T21:09:48.717Z,1016
2018-03-16T21:15:16.609Z,1016
2018-03-16T21:20:43.510Z,1017
2018-03-16T21:26:11.661Z,1016
2018-03-16T21:31:38.271Z,1016
2018-03-16T21:37:05.156Z,1017
2018-03-16T21:42:32.073Z,1016
2018-03-16T21:47:58.984Z,1017
2018-03-16T21:53:25.841Z,1017
2018-03-16T21:58:52.602Z,1017
2018-03-16T22:04:20.552Z,1017
2018-03-16T22:09:48.260Z,1017
2018-03-16T22:15:16.089Z,1017
2018-03-16T22:20:44.117Z,1017
2018-03-16T22:26:10.887Z,1017
2018-03-16T22:31:38.728Z,1017
2018-03-16T22:37:05.661Z,1017
2018-03-16T22:42:33.351Z,1017
2018-03-16T22:48:01.194Z,1017
2018-03-16T22:53:29.007Z,1017
2018-03-16T22:58:56.876Z,1017
2018-03-16T23:04:23.704Z,1017
2018-03-16T23:09:51.507Z,1017
2018-03-16T23:15:19.397Z,1017
2018-03-16T23:20:46.179Z,1017
2018-03-16T23:26:14.589Z,1017
2018-03-16T23:31:40.890Z,1017
2018-03-16T23:37:09.012Z,1017
2018-03-16T23:42:35.918Z,1017
2018-03-16T23:48:02.428Z,1017
2018-03-16T23:53:29.273Z,1017
2018-03-16T23:58:57.137Z,1017
